Time;durP1;ratioP1;P1;durP2;ratioP2;P2;SDS_P1;SDS_P2;PMS_P1;PMS_P2;Temp;Humidity;BMP_temperature;BMP_pressure;BME280_temperature;BME280_humidity;BME280_pressure;Samples;Min_cycle;Max_cycle;Signal;HPM_P1;HPM_P2
2022/01/29 00:01:56;;;;;;;;;;;22.10;27.20;;;;;;5085935;28;19920;-66
2022/01/29 00:04:23;;;;;;;;;;;22.10;27.20;;;;;;5084562;28;19930;-66
2022/01/29 00:06:50;;;;;;;;;;;22.10;27.30;;;;;;5085429;28;20018;-66
2022/01/29 00:09:17;;;;;;;;;;;22.10;27.30;;;;;;5086438;28;19964;-66
2022/01/29 00:11:44;;;;;;;;;;;22.10;27.30;;;;;;5085436;28;20341;-66
2022/01/29 00:14:11;;;;;;;;;;;22.10;27.30;;;;;;5085710;28;19963;-66
2022/01/29 00:16:40;;;;;;;;;;;22.10;27.30;;;;;;5086208;28;19920;-66
2022/01/29 00:19:07;;;;;;;;;;;22.10;27.30;;;;;;5071843;28;19989;-66
2022/01/29 00:21:34;;;;;;;;;;;22.10;27.30;;;;;;5089724;28;19923;-66
2022/01/29 00:24:01;;;;;;;;;;;22.10;27.30;;;;;;5089533;28;20010;-66
2022/01/29 00:26:28;;;;;;;;;;;22.10;27.30;;;;;;5090019;28;19931;-66
2022/01/29 00:28:57;;;;;;;;;;;22.20;27.40;;;;;;5089473;28;19920;-66
2022/01/29 00:31:25;;;;;;;;;;;22.20;27.40;;;;;;5089777;28;19963;-66
2022/01/29 00:33:51;;;;;;;;;;;22.20;27.40;;;;;;5089691;28;20015;-66
2022/01/29 00:36:18;;;;;;;;;;;22.20;27.40;;;;;;5089358;28;20561;-66
2022/01/29 00:38:45;;;;;;;;;;;22.20;27.40;;;;;;5071704;28;19920;-66
2022/01/29 00:41:12;;;;;;;;;;;22.20;27.40;;;;;;5089520;28;19956;-66
2022/01/29 00:43:39;;;;;;;;;;;22.20;27.40;;;;;;5104725;28;20010;-66
2022/01/29 00:46:06;;;;;;;;;;;22.20;27.40;;;;;;5090009;28;19930;-66
2022/01/29 00:48:33;;;;;;;;;;;22.20;27.40;;;;;;5088994;28;19920;-66
2022/01/29 00:51:02;;;;;;;;;;;22.20;27.40;;;;;;5090062;28;20361;-66
2022/01/29 00:53:29;;;;;;;;;;;22.10;27.40;;;;;;5089068;28;19993;-66
2022/01/29 00:55:56;;;;;;;;;;;22.10;27.40;;;;;;5089275;28;19920;-66
2022/01/29 00:58:23;;;;;;;;;;;22.10;27.40;;;;;;5089101;28;19920;-66
2022/01/29 01:00:49;;;;;;;;;;;22.10;27.40;;;;;;5088530;28;20387;-66
2022/01/29 01:03:16;;;;;;;;;;;22.10;27.40;;;;;;5089675;28;19924;-65
2022/01/29 01:05:43;;;;;;;;;;;22.10;27.40;;;;;;5097939;28;19973;-66
2022/01/29 01:08:11;;;;;;;;;;;22.10;27.40;;;;;;5100361;28;20108;-65
2022/01/29 01:10:38;;;;;;;;;;;22.10;27.50;;;;;;5089100;28;20430;-66
2022/01/29 01:13:05;;;;;;;;;;;22.10;27.40;;;;;;5088789;28;20087;-66
2022/01/29 01:15:32;;;;;;;;;;;22.10;27.40;;;;;;5088826;28;20346;-66
2022/01/29 01:17:59;;;;;;;;;;;22.10;27.40;;;;;;5070151;28;20005;-66
2022/01/29 01:20:27;;;;;;;;;;;22.00;27.40;;;;;;5088052;28;19967;-66
2022/01/29 01:22:54;;;;;;;;;;;22.10;27.40;;;;;;5088574;28;20005;-66
2022/01/29 01:25:21;;;;;;;;;;;22.00;27.40;;;;;;5088235;28;19956;-66
2022/01/29 01:27:48;;;;;;;;;;;22.00;27.40;;;;;;5087801;28;20152;-66
2022/01/29 01:30:15;;;;;;;;;;;22.00;27.40;;;;;;5069750;28;19920;-66
2022/01/29 01:32:42;;;;;;;;;;;22.00;27.30;;;;;;5088331;28;19920;-66
2022/01/29 01:35:17;;;;;;;;;;;22.00;27.30;;;;;;5089185;28;20014;-66
2022/01/29 01:37:53;;;;;;;;;;;22.00;27.30;;;;;;5088074;28;20007;-66
2022/01/29 01:40:22;;;;;;;;;;;22.00;27.30;;;;;;5088459;28;19950;-66
2022/01/29 01:42:49;;;;;;;;;;;22.00;27.30;;;;;;5087932;28;20345;-66
2022/01/29 01:45:16;;;;;;;;;;;22.00;27.30;;;;;;5088244;28;19920;-66
2022/01/29 01:47:43;;;;;;;;;;;22.00;27.30;;;;;;5070199;28;19981;-66
2022/01/29 01:50:10;;;;;;;;;;;22.00;27.30;;;;;;5070284;28;19920;-66
2022/01/29 01:52:37;;;;;;;;;;;22.00;27.30;;;;;;5088223;28;20141;-66
2022/01/29 01:55:04;;;;;;;;;;;22.00;27.30;;;;;;5087370;28;19977;-67
2022/01/29 01:57:31;;;;;;;;;;;21.90;27.30;;;;;;5088007;28;20022;-66
2022/01/29 01:59:58;;;;;;;;;;;21.90;27.30;;;;;;5087469;28;20018;-66
2022/01/29 02:02:25;;;;;;;;;;;21.90;27.30;;;;;;5088294;28;20000;-66
2022/01/29 02:04:52;;;;;;;;;;;21.90;27.30;;;;;;5087996;28;19920;-66
2022/01/29 02:07:19;;;;;;;;;;;21.90;27.20;;;;;;5087515;28;20381;-66
2022/01/29 02:09:46;;;;;;;;;;;21.90;27.20;;;;;;5087392;28;19963;-66
2022/01/29 02:12:14;;;;;;;;;;;21.90;27.20;;;;;;5087558;28;19920;-66
2022/01/29 02:14:41;;;;;;;;;;;21.90;27.20;;;;;;5087572;28;19920;-66
2022/01/29 02:17:09;;;;;;;;;;;21.90;27.20;;;;;;5086722;28;20370;-66
2022/01/29 02:19:36;;;;;;;;;;;21.90;27.20;;;;;;5087176;28;19920;-66
2022/01/29 02:22:03;;;;;;;;;;;21.90;27.20;;;;;;5087707;28;20159;-66
2022/01/29 02:24:30;;;;;;;;;;;21.90;27.20;;;;;;5087640;28;20278;-66
2022/01/29 02:26:57;;;;;;;;;;;21.90;27.20;;;;;;5087629;28;20003;-65
2022/01/29 02:29:24;;;;;;;;;;;21.90;27.20;;;;;;5087269;28;20365;-66
2022/01/29 02:31:54;;;;;;;;;;;21.90;27.20;;;;;;5086942;28;20230;-66
2022/01/29 02:34:21;;;;;;;;;;;21.90;27.30;;;;;;5087533;28;19973;-66
2022/01/29 02:36:49;;;;;;;;;;;21.90;27.30;;;;;;5086874;28;19978;-66
2022/01/29 02:39:20;;;;;;;;;;;21.90;27.30;;;;;;5087200;28;19966;-66
2022/01/29 02:41:47;;;;;;;;;;;21.90;27.30;;;;;;5087271;28;19924;-66
2022/01/29 02:44:19;;;;;;;;;;;21.90;27.30;;;;;;5087079;28;20014;-66
2022/01/29 02:46:52;;;;;;;;;;;21.90;27.30;;;;;;5087366;28;19924;-65
2022/01/29 02:49:24;;;;;;;;;;;21.90;27.30;;;;;;5086477;28;20407;-65
2022/01/29 02:51:52;;;;;;;;;;;21.90;27.30;;;;;;5087548;28;19920;-65
2022/01/29 02:54:20;;;;;;;;;;;21.90;27.40;;;;;;5086674;28;19963;-65
2022/01/29 02:56:47;;;;;;;;;;;21.90;27.40;;;;;;5087292;28;19923;-65
2022/01/29 02:59:14;;;;;;;;;;;21.90;27.40;;;;;;5086808;28;19962;-66
2022/01/29 03:01:41;;;;;;;;;;;21.90;27.40;;;;;;5086678;28;19926;-65
2022/01/29 03:04:08;;;;;;;;;;;21.90;27.40;;;;;;5087060;28;20007;-65
2022/01/29 03:06:35;;;;;;;;;;;21.90;27.40;;;;;;5086486;28;19926;-65
2022/01/29 03:09:03;;;;;;;;;;;21.90;27.40;;;;;;5086591;28;20086;-65
2022/01/29 03:11:31;;;;;;;;;;;21.90;27.40;;;;;;5086501;28;19931;-66
2022/01/29 03:13:58;;;;;;;;;;;21.80;27.40;;;;;;5086468;28;20312;-66
2022/01/29 03:16:25;;;;;;;;;;;21.90;27.40;;;;;;5087226;28;19986;-65
2022/01/29 03:18:52;;;;;;;;;;;21.90;27.40;;;;;;5101608;28;19926;-65
2022/01/29 03:21:19;;;;;;;;;;;21.90;27.50;;;;;;5086672;28;19923;-66
2022/01/29 03:23:46;;;;;;;;;;;21.80;27.40;;;;;;5086321;28;20425;-65
2022/01/29 03:26:13;;;;;;;;;;;21.90;27.50;;;;;;5086190;28;20469;-65
2022/01/29 03:28:40;;;;;;;;;;;21.80;27.40;;;;;;5086480;28;19986;-65
2022/01/29 03:31:07;;;;;;;;;;;21.80;27.40;;;;;;5086038;28;19962;-65
2022/01/29 03:33:34;;;;;;;;;;;21.80;27.40;;;;;;5086342;28;19920;-66
2022/01/29 03:36:02;;;;;;;;;;;21.80;27.40;;;;;;5086459;28;20010;-65
2022/01/29 03:38:29;;;;;;;;;;;21.80;27.50;;;;;;5086114;28;20034;-65
2022/01/29 03:40:58;;;;;;;;;;;21.80;27.50;;;;;;5086699;28;19920;-65
2022/01/29 03:43:29;;;;;;;;;;;21.90;27.50;;;;;;5085548;28;20132;-66
2022/01/29 03:45:56;;;;;;;;;;;21.80;27.50;;;;;;5086681;28;19919;-65
2022/01/29 03:48:23;;;;;;;;;;;21.80;27.50;;;;;;5085743;28;20010;-65
2022/01/29 03:50:50;;;;;;;;;;;21.80;27.50;;;;;;5085273;28;19970;-65
2022/01/29 03:53:17;;;;;;;;;;;21.80;27.50;;;;;;5086283;28;19920;-65
2022/01/29 03:55:44;;;;;;;;;;;21.80;27.50;;;;;;5086067;28;19960;-66
2022/01/29 03:58:11;;;;;;;;;;;21.80;27.50;;;;;;5086042;28;20018;-65
2022/01/29 04:00:38;;;;;;;;;;;21.80;27.50;;;;;;5085663;28;20002;-65
2022/01/29 04:03:06;;;;;;;;;;;21.80;27.60;;;;;;5085564;28;19977;-65
2022/01/29 04:05:34;;;;;;;;;;;21.90;27.60;;;;;;5085934;28;19920;-65
2022/01/29 04:08:01;;;;;;;;;;;21.90;27.60;;;;;;5085256;28;19935;-65
2022/01/29 04:10:29;;;;;;;;;;;21.90;27.60;;;;;;5085894;28;20007;-65
2022/01/29 04:12:57;;;;;;;;;;;21.90;27.60;;;;;;5085097;28;20071;-65
2022/01/29 04:15:24;;;;;;;;;;;21.90;27.60;;;;;;5086319;28;20333;-65
2022/01/29 04:17:51;;;;;;;;;;;21.80;27.60;;;;;;5085487;28;20276;-65
2022/01/29 04:20:18;;;;;;;;;;;21.90;28.10;;;;;;5085390;28;20019;-66
2022/01/29 04:22:45;;;;;;;;;;;21.90;27.60;;;;;;5085915;28;19974;-65
2022/01/29 04:25:12;;;;;;;;;;;21.90;27.60;;;;;;5084949;28;19959;-65
2022/01/29 04:27:45;;;;;;;;;;;21.90;27.60;;;;;;5085857;28;20014;-65
2022/01/29 04:30:31;;;;;;;;;;;21.90;27.70;;;;;;5085698;28;20195;-65
2022/01/29 04:33:02;;;;;;;;;;;21.90;27.70;;;;;;5085210;28;19969;-65
2022/01/29 04:35:29;;;;;;;;;;;21.90;27.70;;;;;;5085694;28;20311;-65
2022/01/29 04:37:57;;;;;;;;;;;21.80;27.70;;;;;;5085681;28;20288;-65
2022/01/29 04:40:24;;;;;;;;;;;21.90;27.70;;;;;;5085484;28;19920;-65
2022/01/29 04:42:51;;;;;;;;;;;21.80;27.70;;;;;;5085265;28;20014;-65
2022/01/29 04:45:18;;;;;;;;;;;21.80;27.70;;;;;;5085547;28;20027;-65
2022/01/29 04:47:45;;;;;;;;;;;21.80;27.70;;;;;;5085184;28;19978;-65
2022/01/29 04:50:11;;;;;;;;;;;21.90;27.70;;;;;;5100529;28;20563;-65
2022/01/29 04:52:39;;;;;;;;;;;21.80;27.70;;;;;;5086043;28;19927;-65
2022/01/29 04:55:06;;;;;;;;;;;21.80;27.70;;;;;;5085447;28;19920;-65
2022/01/29 04:57:33;;;;;;;;;;;21.80;27.70;;;;;;5085395;28;19999;-65
2022/01/29 05:00:01;;;;;;;;;;;21.90;27.80;;;;;;5085632;28;19978;-65
2022/01/29 05:02:28;;;;;;;;;;;21.80;27.80;;;;;;5085392;28;19955;-65
2022/01/29 05:04:55;;;;;;;;;;;21.80;27.70;;;;;;5089128;28;20289;-65
2022/01/29 05:07:22;;;;;;;;;;;21.80;27.80;;;;;;5088406;28;20399;-66
2022/01/29 05:09:49;;;;;;;;;;;21.80;27.80;;;;;;5088706;28;19919;-65
2022/01/29 05:12:23;;;;;;;;;;;21.80;27.80;;;;;;5088649;28;19920;-65
2022/01/29 05:28:43;;;;;;;;;;;21.80;27.90;;;;;;5089186;28;19939;-65
2022/01/29 05:31:10;;;;;;;;;;;21.80;27.90;;;;;;5088241;28;19924;-65
2022/01/29 05:33:37;;;;;;;;;;;21.80;27.90;;;;;;5088487;28;19923;-66
2022/01/29 05:36:04;;;;;;;;;;;21.80;27.90;;;;;;5088526;28;20364;-65
2022/01/29 05:38:31;;;;;;;;;;;21.80;27.90;;;;;;5087876;28;19926;-65
2022/01/29 05:40:58;;;;;;;;;;;21.80;27.90;;;;;;5088915;28;19920;-65
2022/01/29 05:43:25;;;;;;;;;;;21.80;28.10;;;;;;5087828;28;20153;-65
2022/01/29 05:45:52;;;;;;;;;;;21.80;27.90;;;;;;5088802;28;19927;-65
2022/01/29 05:48:19;;;;;;;;;;;21.80;27.90;;;;;;5088227;28;19920;-65
2022/01/29 05:50:46;;;;;;;;;;;21.80;27.90;;;;;;5103595;28;20019;-65
2022/01/29 05:53:13;;;;;;;;;;;21.80;27.90;;;;;;5088714;28;20010;-65
2022/01/29 05:55:41;;;;;;;;;;;21.80;27.90;;;;;;5087504;28;20023;-65
2022/01/29 05:58:07;;;;;;;;;;;21.80;27.90;;;;;;5088495;28;19924;-65
2022/01/29 06:00:35;;;;;;;;;;;21.90;27.90;;;;;;5087459;28;19975;-65
2022/01/29 06:03:03;;;;;;;;;;;21.90;27.90;;;;;;5087453;28;19920;-65
2022/01/29 06:05:30;;;;;;;;;;;21.90;27.90;;;;;;5088431;28;20212;-65
2022/01/29 06:07:57;;;;;;;;;;;21.90;28.00;;;;;;5087480;28;19924;-65
2022/01/29 06:10:24;;;;;;;;;;;21.80;27.90;;;;;;5087545;28;19965;-65
2022/01/29 06:13:03;;;;;;;;;;;21.80;27.80;;;;;;5088007;28;19920;-65
2022/01/29 06:15:35;;;;;;;;;;;21.80;27.80;;;;;;5086713;28;20394;-65
2022/01/29 06:18:03;;;;;;;;;;;21.80;27.80;;;;;;5087600;28;19920;-65
2022/01/29 06:20:30;;;;;;;;;;;21.80;27.70;;;;;;5086856;28;20399;-65
2022/01/29 06:22:56;;;;;;;;;;;21.80;27.70;;;;;;5087770;28;20003;-65
2022/01/29 06:25:24;;;;;;;;;;;21.80;27.60;;;;;;5087317;28;20445;-65
2022/01/29 06:27:51;;;;;;;;;;;21.80;27.90;;;;;;5086657;28;19928;-65
2022/01/29 06:30:23;;;;;;;;;;;21.80;27.40;;;;;;5087865;28;19924;-65
2022/01/29 06:32:50;;;;;;;;;;;21.90;27.40;;;;;;5102584;28;19924;-65
2022/01/29 06:35:17;;;;;;;;;;;21.90;27.30;;;;;;5087097;28;19919;-65
2022/01/29 06:37:44;;;;;;;;;;;21.90;27.30;;;;;;5087420;28;20006;-65
2022/01/29 06:40:11;;;;;;;;;;;22.00;27.30;;;;;;5087446;28;19963;-65
2022/01/29 06:42:38;;;;;;;;;;;22.00;27.20;;;;;;5093884;28;20376;-64
2022/01/29 06:45:05;;;;;;;;;;;22.00;27.20;;;;;;5106312;28;19959;-64
2022/01/29 06:47:32;;;;;;;;;;;22.10;27.10;;;;;;5101794;28;20014;-65
2022/01/29 06:49:59;;;;;;;;;;;22.20;27.10;;;;;;5086541;28;20330;-65
2022/01/29 06:52:26;;;;;;;;;;;22.20;27.10;;;;;;5087224;28;20003;-65
2022/01/29 06:54:53;;;;;;;;;;;22.30;27.00;;;;;;5086456;28;19926;-65
2022/01/29 06:57:20;;;;;;;;;;;22.30;27.00;;;;;;5086828;28;20019;-65
2022/01/29 06:59:47;;;;;;;;;;;22.40;26.90;;;;;;5086983;28;19971;-65
2022/01/29 07:02:14;;;;;;;;;;;22.40;26.90;;;;;;5086886;28;19958;-65
2022/01/29 07:04:41;;;;;;;;;;;22.40;26.80;;;;;;5086795;28;19971;-65
2022/01/29 07:07:08;;;;;;;;;;;22.50;26.80;;;;;;5085839;28;20176;-64
2022/01/29 07:09:35;;;;;;;;;;;22.60;26.70;;;;;;5086578;28;20007;-64
2022/01/29 07:12:09;;;;;;;;;;;22.60;26.70;;;;;;5086091;28;20015;-65
2022/01/29 07:14:39;;;;;;;;;;;22.70;26.60;;;;;;5085930;28;19964;-65
2022/01/29 07:17:10;;;;;;;;;;;22.80;26.60;;;;;;5087025;28;19965;-65
2022/01/29 07:19:37;;;;;;;;;;;22.80;26.50;;;;;;5086243;28;19932;-65
2022/01/29 07:22:04;;;;;;;;;;;22.90;26.50;;;;;;5086129;28;19926;-65
2022/01/29 07:24:32;;;;;;;;;;;22.90;26.50;;;;;;5086726;28;20108;-65
2022/01/29 07:26:59;;;;;;;;;;;23.00;26.40;;;;;;5086281;28;19924;-65
2022/01/29 07:29:26;;;;;;;;;;;23.00;26.30;;;;;;5086311;28;20414;-65
2022/01/29 07:31:53;;;;;;;;;;;23.10;26.20;;;;;;5086177;28;19963;-65
2022/01/29 07:34:20;;;;;;;;;;;23.20;26.10;;;;;;5086312;28;20272;-65
2022/01/29 07:36:47;;;;;;;;;;;23.20;26.00;;;;;;5086103;28;19963;-65
2022/01/29 07:39:14;;;;;;;;;;;23.30;26.00;;;;;;5086021;28;19924;-65
2022/01/29 07:41:40;;;;;;;;;;;23.40;25.90;;;;;;5086636;28;19931;-65
2022/01/29 07:44:08;;;;;;;;;;;23.50;25.90;;;;;;5085881;28;20138;-65
2022/01/29 07:46:35;;;;;;;;;;;23.50;25.80;;;;;;5086541;28;19959;-65
2022/01/29 07:49:02;;;;;;;;;;;23.60;25.80;;;;;;5085852;28;20327;-66
2022/01/29 07:51:29;;;;;;;;;;;23.60;25.70;;;;;;5085872;28;19967;-65
2022/01/29 07:53:56;;;;;;;;;;;23.70;25.70;;;;;;5085569;28;20018;-65
2022/01/29 07:56:23;;;;;;;;;;;23.70;25.60;;;;;;5086243;28;20018;-65
2022/01/29 07:58:51;;;;;;;;;;;23.80;25.70;;;;;;5085878;28;19920;-65
2022/01/29 08:01:18;;;;;;;;;;;23.90;25.60;;;;;;5086269;28;19999;-65
2022/01/29 08:03:48;;;;;;;;;;;23.90;25.60;;;;;;5085877;28;20464;-65
2022/01/29 08:06:16;;;;;;;;;;;23.90;25.60;;;;;;5085830;28;20385;-65
2022/01/29 08:08:43;;;;;;;;;;;23.90;25.60;;;;;;5085080;28;20159;-66
2022/01/29 08:11:10;;;;;;;;;;;23.90;25.60;;;;;;5086131;28;20400;-66
2022/01/29 08:13:37;;;;;;;;;;;23.90;25.60;;;;;;5085271;28;20062;-66
2022/01/29 08:16:04;;;;;;;;;;;23.80;25.60;;;;;;5086118;28;19920;-67
2022/01/29 08:18:32;;;;;;;;;;;23.80;25.60;;;;;;5085257;28;20262;-65
2022/01/29 08:20:58;;;;;;;;;;;23.80;25.60;;;;;;5084927;28;20011;-65
2022/01/29 08:23:25;;;;;;;;;;;23.80;25.70;;;;;;5085909;28;20387;-65
2022/01/29 08:25:53;;;;;;;;;;;23.80;25.70;;;;;;5100926;28;19967;-65
2022/01/29 08:28:23;;;;;;;;;;;23.80;25.70;;;;;;5086321;28;19965;-65
2022/01/29 08:30:50;;;;;;;;;;;23.80;25.70;;;;;;5085749;28;20295;-66
2022/01/29 08:33:18;;;;;;;;;;;23.80;25.70;;;;;;5085638;28;19977;-66
2022/01/29 08:35:46;;;;;;;;;;;23.80;25.70;;;;;;5085261;28;20518;-66
2022/01/29 08:38:13;;;;;;;;;;;23.80;25.80;;;;;;5086674;28;19920;-65
2022/01/29 08:40:41;;;;;;;;;;;23.80;25.70;;;;;;5089473;28;19978;-65
2022/01/29 08:43:08;;;;;;;;;;;23.80;25.70;;;;;;5089380;28;19974;-65
2022/01/29 08:45:35;;;;;;;;;;;23.80;25.70;;;;;;5089119;28;19971;-65
2022/01/29 08:48:02;;;;;;;;;;;23.80;25.70;;;;;;5089645;28;20019;-66
2022/01/29 08:50:29;;;;;;;;;;;23.80;25.70;;;;;;5089720;28;19963;-66
2022/01/29 08:52:56;;;;;;;;;;;23.70;25.70;;;;;;5089453;28;20381;-65
2022/01/29 08:55:23;;;;;;;;;;;23.70;25.70;;;;;;5089315;28;20421;-65
2022/01/29 08:57:50;;;;;;;;;;;23.70;25.70;;;;;;5089288;28;20203;-65
2022/01/29 09:00:18;;;;;;;;;;;23.70;25.70;;;;;;5089126;28;19998;-65
2022/01/29 09:02:44;;;;;;;;;;;23.70;25.80;;;;;;5089302;28;20376;-65
2022/01/29 09:05:12;;;;;;;;;;;23.70;25.80;;;;;;5088890;28;19920;-67
2022/01/29 09:07:39;;;;;;;;;;;23.70;25.80;;;;;;5088322;28;20034;-65
2022/01/29 09:10:06;;;;;;;;;;;23.70;25.80;;;;;;5088723;28;20015;-65
2022/01/29 09:12:33;;;;;;;;;;;23.70;25.80;;;;;;5089040;28;19967;-65
2022/01/29 09:15:00;;;;;;;;;;;23.70;25.80;;;;;;5088401;28;20003;-66
2022/01/29 09:17:27;;;;;;;;;;;23.70;25.80;;;;;;5089287;28;19920;-65
2022/01/29 09:19:54;;;;;;;;;;;23.60;25.80;;;;;;5088498;28;20007;-65
2022/01/29 09:22:21;;;;;;;;;;;23.60;25.80;;;;;;5089307;28;20014;-66
2022/01/29 09:24:48;;;;;;;;;;;23.60;25.90;;;;;;5088683;28;19920;-65
2022/01/29 09:27:15;;;;;;;;;;;23.60;25.90;;;;;;5088792;28;19959;-68
2022/01/29 09:29:43;;;;;;;;;;;23.60;25.90;;;;;;5088628;28;19985;-65
2022/01/29 09:32:10;;;;;;;;;;;23.70;26.00;;;;;;5088978;28;20027;-65
2022/01/29 09:34:37;;;;;;;;;;;23.70;26.00;;;;;;5088431;28;19956;-66
2022/01/29 09:37:04;;;;;;;;;;;23.70;26.00;;;;;;5088649;28;19920;-65
2022/01/29 09:39:31;;;;;;;;;;;23.70;26.00;;;;;;5088332;28;19977;-65
2022/01/29 09:41:58;;;;;;;;;;;23.70;26.00;;;;;;5087912;28;20019;-65
2022/01/29 09:44:25;;;;;;;;;;;23.70;26.00;;;;;;5087611;28;20432;-66
2022/01/29 09:46:53;;;;;;;;;;;23.70;25.90;;;;;;5088323;28;19942;-65
2022/01/29 09:49:20;;;;;;;;;;;23.80;25.90;;;;;;5087933;28;19928;-66
2022/01/29 09:51:47;;;;;;;;;;;23.80;25.90;;;;;;5088517;28;19955;-65
2022/01/29 09:54:13;;;;;;;;;;;23.80;25.90;;;;;;5069965;28;20003;-66
2022/01/29 09:56:40;;;;;;;;;;;23.80;25.80;;;;;;5103819;28;19974;-66
2022/01/29 09:59:07;;;;;;;;;;;23.80;25.80;;;;;;5087634;28;19930;-65
2022/01/29 10:01:34;;;;;;;;;;;23.80;25.80;;;;;;5087957;28;20321;-66
2022/01/29 10:04:03;;;;;;;;;;;23.90;26.30;;;;;;5087665;28;19931;-65
2022/01/29 10:06:31;;;;;;;;;;;23.90;25.80;;;;;;5087851;28;20003;-66
2022/01/29 10:08:59;;;;;;;;;;;23.90;25.80;;;;;;5087349;28;19920;-65
2022/01/29 10:11:27;;;;;;;;;;;23.90;25.70;;;;;;5102779;28;19966;-66
2022/01/29 10:14:01;;;;;;;;;;;23.90;25.70;;;;;;5087771;28;20041;-65
2022/01/29 10:16:29;;;;;;;;;;;23.90;25.70;;;;;;5087683;28;20018;-66
2022/01/29 10:19:07;;;;;;;;;;;24.00;25.80;;;;;;5088187;28;19954;-65
2022/01/29 10:21:35;;;;;;;;;;;24.00;25.70;;;;;;5087231;28;19924;-65
2022/01/29 10:24:06;;;;;;;;;;;24.00;25.70;;;;;;5087082;28;20420;-65
2022/01/29 10:26:38;;;;;;;;;;;24.00;25.70;;;;;;5087883;28;19927;-66
2022/01/29 10:29:07;;;;;;;;;;;24.00;25.70;;;;;;5087324;28;19920;-65
2022/01/29 10:31:44;;;;;;;;;;;24.10;25.70;;;;;;5088023;28;19964;-66
2022/01/29 10:34:19;;;;;;;;;;;24.10;25.70;;;;;;5087139;28;19939;-66
2022/01/29 10:37:05;;;;;;;;;;;24.10;25.70;;;;;;5087161;28;19926;-65
2022/01/29 10:39:32;;;;;;;;;;;24.10;25.70;;;;;;5085751;28;19920;-66
2022/01/29 10:42:12;;;;;;;;;;;24.10;25.70;;;;;;5103824;28;20329;-66
2022/01/29 10:44:44;;;;;;;;;;;24.10;25.70;;;;;;5107491;28;20664;-66
2022/01/29 10:47:11;;;;;;;;;;;24.10;25.60;;;;;;5090121;28;19919;-65
2022/01/29 10:49:44;;;;;;;;;;;24.10;25.60;;;;;;5087353;28;20014;-66
2022/01/29 10:52:12;;;;;;;;;;;24.10;26.10;;;;;;5087092;28;19920;-66
2022/01/29 10:54:40;;;;;;;;;;;24.10;25.60;;;;;;5086985;28;20337;-65
2022/01/29 10:57:11;;;;;;;;;;;24.20;26.10;;;;;;5087244;28;19977;-65
2022/01/29 10:59:48;;;;;;;;;;;24.20;25.60;;;;;;5087118;28;19975;-66
2022/01/29 11:02:16;;;;;;;;;;;24.20;25.60;;;;;;5086568;28;20018;-65
2022/01/29 11:04:43;;;;;;;;;;;24.20;25.60;;;;;;5086833;28;19999;-65
2022/01/29 11:07:16;;;;;;;;;;;24.20;25.60;;;;;;5086947;28;19968;-67
2022/01/29 11:09:45;;;;;;;;;;;24.30;25.60;;;;;;5086779;28;19920;-66
2022/01/29 11:12:17;;;;;;;;;;;24.30;25.60;;;;;;5085488;28;20158;-65
2022/01/29 11:14:44;;;;;;;;;;;24.30;25.60;;;;;;5087219;28;19924;-66
2022/01/29 11:17:12;;;;;;;;;;;24.30;25.60;;;;;;5068605;28;20258;-65
2022/01/29 11:19:39;;;;;;;;;;;24.30;25.60;;;;;;5087233;28;19989;-66
2022/01/29 11:22:07;;;;;;;;;;;24.30;25.60;;;;;;5086889;28;19962;-65
2022/01/29 11:24:35;;;;;;;;;;;24.40;25.60;;;;;;5085251;28;20019;-65
2022/01/29 11:27:15;;;;;;;;;;;24.40;26.00;;;;;;5086280;28;20030;-65
2022/01/29 11:29:54;;;;;;;;;;;24.50;25.60;;;;;;5068502;28;20454;-65
2022/01/29 11:32:24;;;;;;;;;;;24.40;25.50;;;;;;5085858;28;20027;-65
2022/01/29 11:35:11;;;;;;;;;;;24.50;25.50;;;;;;5085117;28;19963;-65
2022/01/29 11:37:41;;;;;;;;;;;24.50;25.40;;;;;;5086458;28;19930;-66
2022/01/29 11:40:22;;;;;;;;;;;24.50;25.30;;;;;;5086636;28;19999;-65
2022/01/29 11:42:53;;;;;;;;;;;24.50;25.30;;;;;;5086175;28;19963;-66
2022/01/29 11:45:33;;;;;;;;;;;24.50;25.30;;;;;;5086375;28;19920;-65
2022/01/29 11:48:00;;;;;;;;;;;24.50;25.30;;;;;;5085937;28;19971;-65
2022/01/29 11:50:45;;;;;;;;;;;24.50;25.20;;;;;;5086956;28;20031;-65
2022/01/29 11:53:13;;;;;;;;;;;24.60;25.30;;;;;;5085646;28;20424;-65
2022/01/29 11:55:42;;;;;;;;;;;24.50;25.20;;;;;;5086058;28;19973;-66
2022/01/29 11:58:20;;;;;;;;;;;24.50;25.20;;;;;;5086065;28;20473;-65
2022/01/29 12:00:51;;;;;;;;;;;24.50;25.20;;;;;;5085349;28;20212;-65
2022/01/29 12:03:44;;;;;;;;;;;24.50;25.20;;;;;;5094427;28;19976;-65
2022/01/29 12:06:23;;;;;;;;;;;24.50;25.10;;;;;;5092309;28;19966;-66
2022/01/29 12:09:05;;;;;;;;;;;24.50;25.20;;;;;;5093887;28;19974;-66
2022/01/29 12:11:32;;;;;;;;;;;24.50;25.10;;;;;;5086090;28;20472;-65
2022/01/29 12:14:19;;;;;;;;;;;24.50;25.10;;;;;;5089030;28;19967;-65
2022/01/29 12:16:51;;;;;;;;;;;24.50;25.10;;;;;;5075414;28;19963;-66
2022/01/29 12:19:40;;;;;;;;;;;24.50;25.10;;;;;;5090225;28;19930;-65
2022/01/29 12:22:08;;;;;;;;;;;24.50;25.10;;;;;;5069468;28;20494;-65
2022/01/29 12:24:35;;;;;;;;;;;24.50;25.10;;;;;;5069559;28;20010;-65
2022/01/29 12:27:03;;;;;;;;;;;24.50;25.10;;;;;;5085483;28;19924;-65
2022/01/29 12:29:30;;;;;;;;;;;24.50;25.10;;;;;;5068725;28;19921;-65
2022/01/29 12:31:58;;;;;;;;;;;24.50;25.10;;;;;;5070024;28;20180;-65
2022/01/29 12:34:25;;;;;;;;;;;24.50;25.10;;;;;;5069438;28;19920;-65
2022/01/29 12:36:52;;;;;;;;;;;24.50;25.10;;;;;;5069479;28;20011;-65
2022/01/29 12:39:23;;;;;;;;;;;24.50;25.10;;;;;;5051987;28;20245;-65
2022/01/29 12:42:28;;;;;;;;;;;24.50;25.00;;;;;;5069083;28;20320;-66
2022/01/29 12:44:54;;;;;;;;;;;24.50;25.00;;;;;;5069289;28;20289;-65
2022/01/29 12:47:26;;;;;;;;;;;24.50;25.00;;;;;;5069096;28;20206;-65
2022/01/29 12:49:53;;;;;;;;;;;24.50;25.00;;;;;;5068688;28;19927;-65
2022/01/29 12:52:21;;;;;;;;;;;24.50;25.00;;;;;;5069338;28;19924;-65
2022/01/29 12:54:52;;;;;;;;;;;24.50;25.00;;;;;;5068949;28;20015;-65
2022/01/29 12:57:20;;;;;;;;;;;24.50;25.00;;;;;;5079626;28;20159;-65
2022/01/29 12:59:47;;;;;;;;;;;24.50;25.10;;;;;;5089125;28;20018;-65
2022/01/29 13:02:34;;;;;;;;;;;24.40;25.10;;;;;;5089497;28;20115;-65
2022/01/29 13:05:02;;;;;;;;;;;24.40;25.00;;;;;;5088576;28;19947;-65
2022/01/29 13:07:33;;;;;;;;;;;24.40;25.10;;;;;;5089415;28;20007;-65
2022/01/29 13:10:00;;;;;;;;;;;24.40;25.10;;;;;;5088897;28;20326;-65
2022/01/29 13:12:27;;;;;;;;;;;24.30;25.00;;;;;;5088184;28;19967;-65
2022/01/29 13:14:54;;;;;;;;;;;24.40;25.10;;;;;;5089109;28;19999;-65
2022/01/29 13:17:23;;;;;;;;;;;24.30;25.00;;;;;;5088893;28;20010;-65
2022/01/29 13:19:50;;;;;;;;;;;24.30;25.00;;;;;;5088782;28;20399;-65
2022/01/29 13:22:17;;;;;;;;;;;24.30;24.90;;;;;;5088729;28;19967;-65
2022/01/29 13:24:47;;;;;;;;;;;24.30;24.90;;;;;;5087228;28;20005;-65
2022/01/29 13:27:16;;;;;;;;;;;24.30;25.00;;;;;;5089025;28;20022;-65
2022/01/29 13:29:47;;;;;;;;;;;24.30;24.90;;;;;;5104089;28;19971;-65
2022/01/29 13:32:25;;;;;;;;;;;24.30;24.90;;;;;;5089061;28;19971;-65
2022/01/29 13:34:52;;;;;;;;;;;24.30;24.90;;;;;;5088449;28;19962;-66
2022/01/29 13:37:33;;;;;;;;;;;24.30;24.90;;;;;;5087755;28;20007;-65
2022/01/29 13:40:03;;;;;;;;;;;24.30;24.90;;;;;;5088439;28;20318;-65
2022/01/29 13:42:34;;;;;;;;;;;24.30;25.00;;;;;;5088153;28;20254;-65
2022/01/29 13:45:11;;;;;;;;;;;24.30;25.00;;;;;;5088528;28;20002;-65
2022/01/29 13:47:58;;;;;;;;;;;24.30;25.00;;;;;;5088074;28;19924;-65
2022/01/29 13:50:45;;;;;;;;;;;24.30;25.00;;;;;;5088089;28;20018;-65
2022/01/29 13:53:13;;;;;;;;;;;24.30;25.00;;;;;;5073762;28;20007;-65
2022/01/29 13:55:58;;;;;;;;;;;24.30;25.00;;;;;;5088096;28;20446;-65
2022/01/29 13:58:25;;;;;;;;;;;24.30;25.00;;;;;;5087926;28;20179;-65
2022/01/29 14:00:57;;;;;;;;;;;24.30;24.90;;;;;;5069736;28;19926;-65
2022/01/29 14:03:41;;;;;;;;;;;24.30;24.90;;;;;;5088629;28;19924;-65
2022/01/29 14:06:30;;;;;;;;;;;24.30;24.90;;;;;;5088227;28;19981;-65
2022/01/29 14:09:12;;;;;;;;;;;24.30;24.90;;;;;;5088254;28;19943;-65
2022/01/29 14:12:04;;;;;;;;;;;24.30;24.90;;;;;;5087926;28;19999;-65
2022/01/29 14:14:45;;;;;;;;;;;24.30;24.90;;;;;;5073759;28;19919;-65
2022/01/29 14:17:13;;;;;;;;;;;24.20;24.80;;;;;;5088153;28;20363;-65
2022/01/29 14:19:42;;;;;;;;;;;24.20;24.80;;;;;;5088241;28;19920;-65
2022/01/29 14:22:09;;;;;;;;;;;24.20;24.80;;;;;;5069647;28;20329;-65
2022/01/29 14:24:37;;;;;;;;;;;24.20;24.80;;;;;;5087710;28;20609;-65
2022/01/29 14:27:05;;;;;;;;;;;24.20;24.80;;;;;;5087768;28;19924;-66
2022/01/29 14:29:38;;;;;;;;;;;24.20;24.90;;;;;;5087346;28;20234;-65
2022/01/29 14:32:19;;;;;;;;;;;24.20;24.90;;;;;;5087159;28;19920;-65
2022/01/29 14:34:56;;;;;;;;;;;24.10;24.90;;;;;;5087119;28;19920;-65
2022/01/29 14:37:23;;;;;;;;;;;24.10;24.90;;;;;;5086867;28;19966;-65
2022/01/29 14:39:50;;;;;;;;;;;24.10;24.90;;;;;;5087464;28;20014;-65
2022/01/29 14:42:31;;;;;;;;;;;24.10;25.00;;;;;;5087378;28;20476;-66